sensor_id;sensor_type;location;lat;lon;timestamp;P1;durP1;ratioP1;P2;durP2;ratioP2
45198;SDS011;30941;46.422;18.772;2024-03-08T00:01:52;19.95;;;13.73;;
45198;SDS011;30941;46.422;18.772;2024-03-08T00:04:18;21.00;;;13.85;;
45198;SDS011;30941;46.422;18.772;2024-03-08T00:06:43;23.48;;;15.45;;
45198;SDS011;30941;46.422;18.772;2024-03-08T00:09:11;25.15;;;15.43;;
45198;SDS011;30941;46.422;18.772;2024-03-08T00:11:39;23.73;;;15.00;;
45198;SDS011;30941;46.422;18.772;2024-03-08T00:14:04;23.98;;;15.30;;
45198;SDS011;30941;46.422;18.772;2024-03-08T00:16:32;24.75;;;15.95;;
45198;SDS011;30941;46.422;18.772;2024-03-08T00:18:58;23.80;;;15.82;;
45198;SDS011;30941;46.422;18.772;2024-03-08T00:21:23;25.80;;;16.33;;
45198;SDS011;30941;46.422;18.772;2024-03-08T00:23:49;23.45;;;14.95;;
45198;SDS011;30941;46.422;18.772;2024-03-08T00:26:14;23.70;;;15.07;;
45198;SDS011;30941;46.422;18.772;2024-03-08T00:28:40;25.70;;;15.35;;
45198;SDS011;30941;46.422;18.772;2024-03-08T00:31:05;22.05;;;15.35;;
45198;SDS011;30941;46.422;18.772;2024-03-08T00:33:32;23.35;;;14.73;;
45198;SDS011;30941;46.422;18.772;2024-03-08T00:35:57;23.10;;;15.13;;
45198;SDS011;30941;46.422;18.772;2024-03-08T00:38:22;23.63;;;15.82;;
45198;SDS011;30941;46.422;18.772;2024-03-08T00:40:48;22.50;;;14.57;;
45198;SDS011;30941;46.422;18.772;2024-03-08T00:43:13;26.50;;;16.48;;
45198;SDS011;30941;46.422;18.772;2024-03-08T00:45:39;21.50;;;13.85;;
45198;SDS011;30941;46.422;18.772;2024-03-08T00:48:07;22.10;;;14.85;;
45198;SDS011;30941;46.422;18.772;2024-03-08T00:50:33;22.15;;;14.30;;
45198;SDS011;30941;46.422;18.772;2024-03-08T00:52:59;20.85;;;13.93;;
45198;SDS011;30941;46.422;18.772;2024-03-08T00:55:24;22.67;;;14.60;;
45198;SDS011;30941;46.422;18.772;2024-03-08T00:57:50;21.88;;;14.05;;
45198;SDS011;30941;46.422;18.772;2024-03-08T01:00:15;22.48;;;14.20;;
45198;SDS011;30941;46.422;18.772;2024-03-08T01:02:42;23.17;;;14.27;;
45198;SDS011;30941;46.422;18.772;2024-03-08T01:05:07;21.65;;;14.40;;
45198;SDS011;30941;46.422;18.772;2024-03-08T01:07:34;21.02;;;13.23;;
45198;SDS011;30941;46.422;18.772;2024-03-08T01:10:00;18.80;;;13.02;;
45198;SDS011;30941;46.422;18.772;2024-03-08T01:12:26;21.15;;;13.00;;
45198;SDS011;30941;46.422;18.772;2024-03-08T01:14:52;20.75;;;13.10;;
45198;SDS011;30941;46.422;18.772;2024-03-08T01:17:17;19.73;;;11.93;;
45198;SDS011;30941;46.422;18.772;2024-03-08T01:19:42;21.40;;;12.02;;
45198;SDS011;30941;46.422;18.772;2024-03-08T01:22:09;18.75;;;11.43;;
45198;SDS011;30941;46.422;18.772;2024-03-08T01:24:35;20.95;;;11.55;;
45198;SDS011;30941;46.422;18.772;2024-03-08T01:27:00;22.45;;;12.05;;
45198;SDS011;30941;46.422;18.772;2024-03-08T01:29:27;17.40;;;11.32;;
45198;SDS011;30941;46.422;18.772;2024-03-08T01:31:54;22.48;;;12.35;;
45198;SDS011;30941;46.422;18.772;2024-03-08T01:34:19;19.90;;;12.48;;
45198;SDS011;30941;46.422;18.772;2024-03-08T01:36:45;19.77;;;12.63;;
45198;SDS011;30941;46.422;18.772;2024-03-08T01:39:11;22.45;;;14.75;;
45198;SDS011;30941;46.422;18.772;2024-03-08T01:41:36;24.27;;;14.43;;
45198;SDS011;30941;46.422;18.772;2024-03-08T01:44:02;25.80;;;15.52;;
45198;SDS011;30941;46.422;18.772;2024-03-08T01:46:29;22.73;;;14.52;;
45198;SDS011;30941;46.422;18.772;2024-03-08T01:48:55;21.95;;;14.02;;
45198;SDS011;30941;46.422;18.772;2024-03-08T01:51:21;26.38;;;15.50;;
45198;SDS011;30941;46.422;18.772;2024-03-08T01:53:47;25.40;;;16.00;;
45198;SDS011;30941;46.422;18.772;2024-03-08T01:56:13;25.55;;;15.63;;
45198;SDS011;30941;46.422;18.772;2024-03-08T01:58:39;25.73;;;15.73;;
45198;SDS011;30941;46.422;18.772;2024-03-08T02:01:07;25.25;;;15.52;;
45198;SDS011;30941;46.422;18.772;2024-03-08T02:03:34;24.10;;;15.70;;
45198;SDS011;30941;46.422;18.772;2024-03-08T02:05:59;26.42;;;16.02;;
45198;SDS011;30941;46.422;18.772;2024-03-08T02:08:25;24.80;;;16.30;;
45198;SDS011;30941;46.422;18.772;2024-03-08T02:10:50;25.40;;;15.85;;
45198;SDS011;30941;46.422;18.772;2024-03-08T02:13:15;25.92;;;16.42;;
45198;SDS011;30941;46.422;18.772;2024-03-08T02:18:18;26.25;;;16.20;;
45198;SDS011;30941;46.422;18.772;2024-03-08T02:20:45;25.08;;;15.90;;
45198;SDS011;30941;46.422;18.772;2024-03-08T02:23:20;26.17;;;17.27;;
45198;SDS011;30941;46.422;18.772;2024-03-08T02:25:46;26.67;;;17.35;;
45198;SDS011;30941;46.422;18.772;2024-03-08T02:28:13;27.60;;;17.50;;
45198;SDS011;30941;46.422;18.772;2024-03-08T02:30:38;27.67;;;17.83;;
45198;SDS011;30941;46.422;18.772;2024-03-08T02:33:04;24.83;;;16.35;;
45198;SDS011;30941;46.422;18.772;2024-03-08T02:35:30;28.20;;;17.00;;
45198;SDS011;30941;46.422;18.772;2024-03-08T02:37:56;29.58;;;17.33;;
45198;SDS011;30941;46.422;18.772;2024-03-08T02:40:22;28.38;;;18.10;;
45198;SDS011;30941;46.422;18.772;2024-03-08T02:42:47;26.48;;;16.63;;
45198;SDS011;30941;46.422;18.772;2024-03-08T02:45:12;24.27;;;17.30;;
45198;SDS011;30941;46.422;18.772;2024-03-08T02:47:38;27.00;;;17.13;;
45198;SDS011;30941;46.422;18.772;2024-03-08T02:50:04;28.63;;;18.45;;
45198;SDS011;30941;46.422;18.772;2024-03-08T02:52:32;28.38;;;16.05;;
45198;SDS011;30941;46.422;18.772;2024-03-08T02:55:04;31.75;;;18.65;;
45198;SDS011;30941;46.422;18.772;2024-03-08T02:57:33;28.55;;;17.70;;
45198;SDS011;30941;46.422;18.772;2024-03-08T02:59:58;26.48;;;16.77;;
45198;SDS011;30941;46.422;18.772;2024-03-08T03:02:24;27.75;;;17.10;;
45198;SDS011;30941;46.422;18.772;2024-03-08T03:04:51;26.45;;;15.95;;
45198;SDS011;30941;46.422;18.772;2024-03-08T03:07:17;26.70;;;17.10;;
45198;SDS011;30941;46.422;18.772;2024-03-08T03:09:42;25.83;;;16.33;;
45198;SDS011;30941;46.422;18.772;2024-03-08T03:12:08;25.50;;;17.15;;
45198;SDS011;30941;46.422;18.772;2024-03-08T03:14:35;26.58;;;17.45;;
45198;SDS011;30941;46.422;18.772;2024-03-08T03:17:03;29.17;;;18.35;;
45198;SDS011;30941;46.422;18.772;2024-03-08T03:19:29;27.05;;;17.80;;
45198;SDS011;30941;46.422;18.772;2024-03-08T03:21:55;27.25;;;17.67;;
45198;SDS011;30941;46.422;18.772;2024-03-08T03:24:20;28.77;;;16.77;;
45198;SDS011;30941;46.422;18.772;2024-03-08T03:26:46;27.30;;;17.02;;
45198;SDS011;30941;46.422;18.772;2024-03-08T03:29:13;27.25;;;17.75;;
45198;SDS011;30941;46.422;18.772;2024-03-08T03:31:39;30.38;;;19.38;;
45198;SDS011;30941;46.422;18.772;2024-03-08T03:34:05;29.02;;;18.75;;
45198;SDS011;30941;46.422;18.772;2024-03-08T03:36:33;26.92;;;17.60;;
45198;SDS011;30941;46.422;18.772;2024-03-08T03:38:59;32.25;;;19.55;;
45198;SDS011;30941;46.422;18.772;2024-03-08T03:41:35;35.58;;;19.17;;
45198;SDS011;30941;46.422;18.772;2024-03-08T03:44:01;33.17;;;18.80;;
45198;SDS011;30941;46.422;18.772;2024-03-08T03:46:26;27.00;;;17.02;;
45198;SDS011;30941;46.422;18.772;2024-03-08T03:48:52;27.50;;;18.30;;
45198;SDS011;30941;46.422;18.772;2024-03-08T03:51:18;28.25;;;18.42;;
45198;SDS011;30941;46.422;18.772;2024-03-08T03:53:45;27.80;;;18.08;;
45198;SDS011;30941;46.422;18.772;2024-03-08T03:56:10;29.05;;;17.67;;
45198;SDS011;30941;46.422;18.772;2024-03-08T03:58:35;27.88;;;17.90;;
45198;SDS011;30941;46.422;18.772;2024-03-08T04:01:01;27.83;;;18.13;;
45198;SDS011;30941;46.422;18.772;2024-03-08T04:03:26;30.13;;;18.33;;
45198;SDS011;30941;46.422;18.772;2024-03-08T04:05:52;34.38;;;19.88;;
45198;SDS011;30941;46.422;18.772;2024-03-08T04:08:17;34.10;;;20.02;;
45198;SDS011;30941;46.422;18.772;2024-03-08T04:10:42;33.92;;;19.58;;
45198;SDS011;30941;46.422;18.772;2024-03-08T04:13:08;33.90;;;19.83;;
45198;SDS011;30941;46.422;18.772;2024-03-08T04:15:34;31.80;;;19.52;;
45198;SDS011;30941;46.422;18.772;2024-03-08T04:18:00;34.47;;;19.85;;
45198;SDS011;30941;46.422;18.772;2024-03-08T04:20:25;36.63;;;20.58;;
45198;SDS011;30941;46.422;18.772;2024-03-08T04:22:51;36.88;;;20.63;;
45198;SDS011;30941;46.422;18.772;2024-03-08T04:25:16;39.10;;;21.30;;
45198;SDS011;30941;46.422;18.772;2024-03-08T04:27:42;35.78;;;22.08;;
45198;SDS011;30941;46.422;18.772;2024-03-08T04:30:07;40.78;;;22.35;;
45198;SDS011;30941;46.422;18.772;2024-03-08T04:32:35;37.08;;;23.02;;
45198;SDS011;30941;46.422;18.772;2024-03-08T04:35:00;39.25;;;23.38;;
45198;SDS011;30941;46.422;18.772;2024-03-08T04:37:26;34.22;;;21.42;;
45198;SDS011;30941;46.422;18.772;2024-03-08T04:39:54;37.00;;;21.58;;
45198;SDS011;30941;46.422;18.772;2024-03-08T04:42:19;35.85;;;21.70;;
45198;SDS011;30941;46.422;18.772;2024-03-08T04:44:45;37.58;;;22.65;;
45198;SDS011;30941;46.422;18.772;2024-03-08T04:47:10;36.75;;;22.85;;
45198;SDS011;30941;46.422;18.772;2024-03-08T04:49:36;41.90;;;24.23;;
45198;SDS011;30941;46.422;18.772;2024-03-08T04:52:02;36.88;;;22.75;;
45198;SDS011;30941;46.422;18.772;2024-03-08T04:54:28;36.53;;;21.45;;
45198;SDS011;30941;46.422;18.772;2024-03-08T04:56:53;40.65;;;22.95;;
45198;SDS011;30941;46.422;18.772;2024-03-08T04:59:19;38.72;;;22.42;;
45198;SDS011;30941;46.422;18.772;2024-03-08T05:01:44;40.15;;;24.08;;
45198;SDS011;30941;46.422;18.772;2024-03-08T05:04:10;43.90;;;23.15;;
45198;SDS011;30941;46.422;18.772;2024-03-08T05:06:35;39.40;;;22.52;;
45198;SDS011;30941;46.422;18.772;2024-03-08T05:09:01;40.97;;;23.27;;
45198;SDS011;30941;46.422;18.772;2024-03-08T05:11:47;41.92;;;23.40;;
45198;SDS011;30941;46.422;18.772;2024-03-08T05:14:13;42.28;;;22.55;;
45198;SDS011;30941;46.422;18.772;2024-03-08T05:16:44;40.47;;;25.10;;
45198;SDS011;30941;46.422;18.772;2024-03-08T05:19:14;43.80;;;24.88;;
45198;SDS011;30941;46.422;18.772;2024-03-08T05:21:46;41.45;;;23.90;;
45198;SDS011;30941;46.422;18.772;2024-03-08T05:24:12;43.00;;;23.95;;
45198;SDS011;30941;46.422;18.772;2024-03-08T05:26:39;39.45;;;23.77;;
45198;SDS011;30941;46.422;18.772;2024-03-08T05:29:05;44.05;;;24.73;;
45198;SDS011;30941;46.422;18.772;2024-03-08T05:31:31;38.97;;;22.30;;
45198;SDS011;30941;46.422;18.772;2024-03-08T05:36:28;47.10;;;25.95;;
45198;SDS011;30941;46.422;18.772;2024-03-08T05:38:54;45.28;;;24.83;;
45198;SDS011;30941;46.422;18.772;2024-03-08T05:41:19;43.95;;;24.58;;
45198;SDS011;30941;46.422;18.772;2024-03-08T05:43:45;49.10;;;25.98;;
45198;SDS011;30941;46.422;18.772;2024-03-08T05:46:10;44.10;;;24.35;;
45198;SDS011;30941;46.422;18.772;2024-03-08T05:48:36;51.65;;;28.02;;
45198;SDS011;30941;46.422;18.772;2024-03-08T05:51:02;43.70;;;25.20;;
45198;SDS011;30941;46.422;18.772;2024-03-08T05:53:28;45.08;;;24.92;;
45198;SDS011;30941;46.422;18.772;2024-03-08T05:55:56;39.38;;;24.02;;
45198;SDS011;30941;46.422;18.772;2024-03-08T05:58:22;40.90;;;23.63;;
45198;SDS011;30941;46.422;18.772;2024-03-08T06:00:48;39.42;;;24.17;;
45198;SDS011;30941;46.422;18.772;2024-03-08T06:03:13;41.17;;;25.27;;
45198;SDS011;30941;46.422;18.772;2024-03-08T06:05:38;38.95;;;24.48;;
45198;SDS011;30941;46.422;18.772;2024-03-08T06:08:07;39.85;;;24.63;;
45198;SDS011;30941;46.422;18.772;2024-03-08T06:10:32;37.15;;;23.33;;
45198;SDS011;30941;46.422;18.772;2024-03-08T06:12:58;38.67;;;24.42;;
45198;SDS011;30941;46.422;18.772;2024-03-08T06:15:24;39.53;;;25.15;;
45198;SDS011;30941;46.422;18.772;2024-03-08T06:17:50;39.30;;;24.55;;
45198;SDS011;30941;46.422;18.772;2024-03-08T06:20:17;34.40;;;22.70;;
45198;SDS011;30941;46.422;18.772;2024-03-08T06:22:43;33.35;;;21.45;;
45198;SDS011;30941;46.422;18.772;2024-03-08T06:25:10;30.00;;;20.30;;
45198;SDS011;30941;46.422;18.772;2024-03-08T06:27:39;31.65;;;20.45;;
45198;SDS011;30941;46.422;18.772;2024-03-08T06:30:06;30.75;;;20.65;;
45198;SDS011;30941;46.422;18.772;2024-03-08T06:32:32;33.67;;;21.88;;
45198;SDS011;30941;46.422;18.772;2024-03-08T06:35:00;32.10;;;21.80;;
45198;SDS011;30941;46.422;18.772;2024-03-08T06:37:31;33.30;;;21.38;;
45198;SDS011;30941;46.422;18.772;2024-03-08T06:39:59;30.02;;;20.40;;
45198;SDS011;30941;46.422;18.772;2024-03-08T06:42:26;32.30;;;21.35;;
45198;SDS011;30941;46.422;18.772;2024-03-08T06:44:52;32.60;;;21.13;;
45198;SDS011;30941;46.422;18.772;2024-03-08T06:47:20;32.13;;;21.65;;
45198;SDS011;30941;46.422;18.772;2024-03-08T06:49:46;31.05;;;22.92;;
45198;SDS011;30941;46.422;18.772;2024-03-08T06:52:11;32.47;;;22.50;;
45198;SDS011;30941;46.422;18.772;2024-03-08T06:54:37;33.53;;;22.45;;
45198;SDS011;30941;46.422;18.772;2024-03-08T06:57:03;31.58;;;22.13;;
45198;SDS011;30941;46.422;18.772;2024-03-08T06:59:28;35.30;;;21.38;;
45198;SDS011;30941;46.422;18.772;2024-03-08T07:01:54;34.25;;;22.50;;
45198;SDS011;30941;46.422;18.772;2024-03-08T07:04:20;32.38;;;22.42;;
45198;SDS011;30941;46.422;18.772;2024-03-08T07:06:46;31.73;;;22.20;;
45198;SDS011;30941;46.422;18.772;2024-03-08T07:09:15;36.45;;;23.88;;
45198;SDS011;30941;46.422;18.772;2024-03-08T07:11:42;37.22;;;23.35;;
45198;SDS011;30941;46.422;18.772;2024-03-08T07:14:07;35.92;;;22.95;;
45198;SDS011;30941;46.422;18.772;2024-03-08T07:16:33;35.03;;;23.13;;
45198;SDS011;30941;46.422;18.772;2024-03-08T07:19:00;34.20;;;22.52;;
45198;SDS011;30941;46.422;18.772;2024-03-08T07:21:26;37.90;;;24.40;;
45198;SDS011;30941;46.422;18.772;2024-03-08T07:23:52;39.53;;;25.42;;
45198;SDS011;30941;46.422;18.772;2024-03-08T07:26:37;39.42;;;24.88;;
45198;SDS011;30941;46.422;18.772;2024-03-08T07:29:03;38.67;;;24.83;;
45198;SDS011;30941;46.422;18.772;2024-03-08T07:31:28;41.95;;;24.63;;
45198;SDS011;30941;46.422;18.772;2024-03-08T07:34:10;42.92;;;26.52;;
45198;SDS011;30941;46.422;18.772;2024-03-08T07:36:35;37.28;;;24.92;;
45198;SDS011;30941;46.422;18.772;2024-03-08T07:39:01;37.40;;;25.63;;
45198;SDS011;30941;46.422;18.772;2024-03-08T07:41:26;39.25;;;25.67;;
45198;SDS011;30941;46.422;18.772;2024-03-08T07:43:53;39.65;;;25.17;;
45198;SDS011;30941;46.422;18.772;2024-03-08T07:46:19;40.58;;;25.52;;
45198;SDS011;30941;46.422;18.772;2024-03-08T07:48:44;49.90;;;25.92;;
45198;SDS011;30941;46.422;18.772;2024-03-08T07:51:11;42.13;;;25.15;;
45198;SDS011;30941;46.422;18.772;2024-03-08T07:53:37;43.45;;;25.73;;
45198;SDS011;30941;46.422;18.772;2024-03-08T07:56:03;42.97;;;25.17;;
45198;SDS011;30941;46.422;18.772;2024-03-08T07:58:30;38.28;;;24.13;;
45198;SDS011;30941;46.422;18.772;2024-03-08T08:00:55;38.05;;;24.40;;
45198;SDS011;30941;46.422;18.772;2024-03-08T08:03:20;36.67;;;23.85;;
45198;SDS011;30941;46.422;18.772;2024-03-08T08:05:46;38.00;;;23.85;;
45198;SDS011;30941;46.422;18.772;2024-03-08T08:08:11;34.63;;;21.23;;
45198;SDS011;30941;46.422;18.772;2024-03-08T08:10:37;34.03;;;20.33;;
45198;SDS011;30941;46.422;18.772;2024-03-08T08:13:02;31.00;;;20.02;;
45198;SDS011;30941;46.422;18.772;2024-03-08T08:15:29;32.92;;;20.75;;
45198;SDS011;30941;46.422;18.772;2024-03-08T08:17:55;33.53;;;21.42;;
45198;SDS011;30941;46.422;18.772;2024-03-08T08:20:20;32.33;;;21.00;;
45198;SDS011;30941;46.422;18.772;2024-03-08T08:22:46;31.95;;;19.75;;
45198;SDS011;30941;46.422;18.772;2024-03-08T08:25:13;28.92;;;19.05;;
45198;SDS011;30941;46.422;18.772;2024-03-08T08:27:40;33.75;;;21.60;;
45198;SDS011;30941;46.422;18.772;2024-03-08T08:30:07;31.08;;;20.48;;
45198;SDS011;30941;46.422;18.772;2024-03-08T08:32:34;32.13;;;21.52;;
45198;SDS011;30941;46.422;18.772;2024-03-08T08:35:01;30.80;;;20.27;;
45198;SDS011;30941;46.422;18.772;2024-03-08T08:37:27;29.85;;;18.52;;
45198;SDS011;30941;46.422;18.772;2024-03-08T08:39:53;26.83;;;18.25;;
45198;SDS011;30941;46.422;18.772;2024-03-08T08:42:19;28.20;;;19.02;;
45198;SDS011;30941;46.422;18.772;2024-03-08T08:44:44;29.55;;;19.83;;
45198;SDS011;30941;46.422;18.772;2024-03-08T08:47:09;28.08;;;19.73;;
45198;SDS011;30941;46.422;18.772;2024-03-08T08:49:35;31.52;;;20.27;;
45198;SDS011;30941;46.422;18.772;2024-03-08T08:52:01;34.58;;;21.38;;
45198;SDS011;30941;46.422;18.772;2024-03-08T08:54:26;34.95;;;22.90;;
45198;SDS011;30941;46.422;18.772;2024-03-08T08:56:52;34.70;;;22.90;;
45198;SDS011;30941;46.422;18.772;2024-03-08T08:59:18;33.42;;;22.65;;
45198;SDS011;30941;46.422;18.772;2024-03-08T09:01:48;34.97;;;22.73;;
45198;SDS011;30941;46.422;18.772;2024-03-08T09:04:13;36.47;;;23.27;;
45198;SDS011;30941;46.422;18.772;2024-03-08T09:06:39;33.22;;;23.20;;
45198;SDS011;30941;46.422;18.772;2024-03-08T09:09:06;34.85;;;22.85;;
45198;SDS011;30941;46.422;18.772;2024-03-08T09:11:34;32.42;;;21.52;;
45198;SDS011;30941;46.422;18.772;2024-03-08T09:13:59;30.45;;;19.98;;
45198;SDS011;30941;46.422;18.772;2024-03-08T09:16:25;27.45;;;19.05;;
45198;SDS011;30941;46.422;18.772;2024-03-08T09:18:51;29.55;;;20.25;;
45198;SDS011;30941;46.422;18.772;2024-03-08T09:21:16;29.20;;;18.35;;
45198;SDS011;30941;46.422;18.772;2024-03-08T09:23:42;26.52;;;18.98;;
45198;SDS011;30941;46.422;18.772;2024-03-08T09:26:09;26.58;;;19.42;;
45198;SDS011;30941;46.422;18.772;2024-03-08T09:28:37;26.00;;;19.13;;
45198;SDS011;30941;46.422;18.772;2024-03-08T09:31:03;24.27;;;17.77;;
45198;SDS011;30941;46.422;18.772;2024-03-08T09:33:30;21.92;;;15.52;;
45198;SDS011;30941;46.422;18.772;2024-03-08T09:35:56;22.17;;;16.67;;
45198;SDS011;30941;46.422;18.772;2024-03-08T09:38:25;17.75;;;13.57;;
45198;SDS011;30941;46.422;18.772;2024-03-08T09:40:51;19.23;;;14.35;;
45198;SDS011;30941;46.422;18.772;2024-03-08T09:43:16;20.05;;;15.60;;
45198;SDS011;30941;46.422;18.772;2024-03-08T09:45:43;18.98;;;15.57;;
45198;SDS011;30941;46.422;18.772;2024-03-08T09:48:11;21.15;;;15.00;;
45198;SDS011;30941;46.422;18.772;2024-03-08T09:50:37;20.27;;;14.65;;
45198;SDS011;30941;46.422;18.772;2024-03-08T09:53:03;17.30;;;13.05;;
45198;SDS011;30941;46.422;18.772;2024-03-08T09:55:29;16.60;;;13.18;;
45198;SDS011;30941;46.422;18.772;2024-03-08T09:57:59;16.17;;;12.57;;
45198;SDS011;30941;46.422;18.772;2024-03-08T10:00:44;16.27;;;12.65;;
45198;SDS011;30941;46.422;18.772;2024-03-08T10:03:10;14.02;;;11.32;;
45198;SDS011;30941;46.422;18.772;2024-03-08T10:05:35;13.90;;;11.27;;
45198;SDS011;30941;46.422;18.772;2024-03-08T10:08:01;14.32;;;12.10;;
45198;SDS011;30941;46.422;18.772;2024-03-08T10:10:26;15.98;;;13.00;;
45198;SDS011;30941;46.422;18.772;2024-03-08T10:12:52;16.20;;;12.93;;
45198;SDS011;30941;46.422;18.772;2024-03-08T10:15:17;16.02;;;13.00;;
45198;SDS011;30941;46.422;18.772;2024-03-08T10:17:43;19.33;;;13.70;;
45198;SDS011;30941;46.422;18.772;2024-03-08T10:20:15;19.73;;;14.80;;
45198;SDS011;30941;46.422;18.772;2024-03-08T10:22:43;18.08;;;14.13;;
45198;SDS011;30941;46.422;18.772;2024-03-08T10:25:12;18.13;;;13.73;;
45198;SDS011;30941;46.422;18.772;2024-03-08T10:27:38;17.95;;;13.52;;
45198;SDS011;30941;46.422;18.772;2024-03-08T10:30:06;17.80;;;14.35;;
45198;SDS011;30941;46.422;18.772;2024-03-08T10:32:35;17.23;;;12.85;;
45198;SDS011;30941;46.422;18.772;2024-03-08T10:35:01;17.02;;;13.73;;
45198;SDS011;30941;46.422;18.772;2024-03-08T10:37:26;16.63;;;13.50;;
45198;SDS011;30941;46.422;18.772;2024-03-08T10:42:35;18.48;;;14.48;;
45198;SDS011;30941;46.422;18.772;2024-03-08T10:45:11;18.88;;;15.88;;
45198;SDS011;30941;46.422;18.772;2024-03-08T10:47:40;21.05;;;15.98;;
45198;SDS011;30941;46.422;18.772;2024-03-08T10:50:19;23.05;;;16.88;;
45198;SDS011;30941;46.422;18.772;2024-03-08T10:52:49;21.27;;;16.42;;
45198;SDS011;30941;46.422;18.772;2024-03-08T10:55:16;21.35;;;17.05;;
45198;SDS011;30941;46.422;18.772;2024-03-08T10:57:42;24.13;;;17.08;;
45198;SDS011;30941;46.422;18.772;2024-03-08T11:00:08;23.42;;;17.27;;
45198;SDS011;30941;46.422;18.772;2024-03-08T11:02:36;26.98;;;19.27;;
45198;SDS011;30941;46.422;18.772;2024-03-08T11:05:04;29.27;;;21.27;;
45198;SDS011;30941;46.422;18.772;2024-03-08T11:07:40;29.90;;;21.42;;
45198;SDS011;30941;46.422;18.772;2024-03-08T11:10:07;29.48;;;21.33;;
45198;SDS011;30941;46.422;18.772;2024-03-08T11:12:43;32.25;;;21.42;;
45198;SDS011;30941;46.422;18.772;2024-03-08T11:15:12;29.67;;;20.88;;
45198;SDS011;30941;46.422;18.772;2024-03-08T11:20:08;30.75;;;20.92;;
45198;SDS011;30941;46.422;18.772;2024-03-08T11:22:40;29.67;;;22.17;;
45198;SDS011;30941;46.422;18.772;2024-03-08T11:25:36;30.90;;;20.73;;
45198;SDS011;30941;46.422;18.772;2024-03-08T11:28:13;30.08;;;20.40;;
45198;SDS011;30941;46.422;18.772;2024-03-08T11:30:42;28.52;;;20.05;;
45198;SDS011;30941;46.422;18.772;2024-03-08T11:33:12;41.92;;;28.48;;
45198;SDS011;30941;46.422;18.772;2024-03-08T11:35:38;31.63;;;22.33;;
45198;SDS011;30941;46.422;18.772;2024-03-08T11:38:04;40.67;;;28.80;;
45198;SDS011;30941;46.422;18.772;2024-03-08T11:40:29;31.60;;;22.48;;
45198;SDS011;30941;46.422;18.772;2024-03-08T11:42:54;29.88;;;20.17;;
45198;SDS011;30941;46.422;18.772;2024-03-08T11:45:20;30.23;;;21.42;;
45198;SDS011;30941;46.422;18.772;2024-03-08T11:47:49;28.30;;;18.85;;
45198;SDS011;30941;46.422;18.772;2024-03-08T11:50:15;27.33;;;18.95;;
45198;SDS011;30941;46.422;18.772;2024-03-08T11:52:41;27.98;;;21.13;;
45198;SDS011;30941;46.422;18.772;2024-03-08T11:55:07;28.52;;;20.90;;
45198;SDS011;30941;46.422;18.772;2024-03-08T11:57:33;31.05;;;21.58;;
45198;SDS011;30941;46.422;18.772;2024-03-08T11:59:59;28.70;;;21.25;;
45198;SDS011;30941;46.422;18.772;2024-03-08T12:02:34;34.42;;;22.80;;
45198;SDS011;30941;46.422;18.772;2024-03-08T12:05:05;31.15;;;21.15;;
45198;SDS011;30941;46.422;18.772;2024-03-08T12:07:35;30.30;;;22.60;;
45198;SDS011;30941;46.422;18.772;2024-03-08T12:10:14;32.63;;;21.92;;
45198;SDS011;30941;46.422;18.772;2024-03-08T12:12:44;30.92;;;21.88;;
45198;SDS011;30941;46.422;18.772;2024-03-08T12:15:10;31.77;;;20.50;;
45198;SDS011;30941;46.422;18.772;2024-03-08T12:17:36;31.15;;;22.17;;
45198;SDS011;30941;46.422;18.772;2024-03-08T12:20:14;30.02;;;21.25;;
45198;SDS011;30941;46.422;18.772;2024-03-08T12:22:44;31.95;;;22.33;;
45198;SDS011;30941;46.422;18.772;2024-03-08T12:25:12;29.58;;;21.63;;
45198;SDS011;30941;46.422;18.772;2024-03-08T12:27:39;30.70;;;21.80;;
45198;SDS011;30941;46.422;18.772;2024-03-08T12:32:47;32.85;;;21.80;;
45198;SDS011;30941;46.422;18.772;2024-03-08T12:35:26;31.02;;;21.90;;
45198;SDS011;30941;46.422;18.772;2024-03-08T12:37:53;33.25;;;21.23;;
45198;SDS011;30941;46.422;18.772;2024-03-08T12:40:30;32.15;;;22.65;;
45198;SDS011;30941;46.422;18.772;2024-03-08T12:43:06;33.58;;;23.40;;
45198;SDS011;30941;46.422;18.772;2024-03-08T12:45:32;33.10;;;22.45;;
45198;SDS011;30941;46.422;18.772;2024-03-08T12:47:57;34.03;;;24.02;;
45198;SDS011;30941;46.422;18.772;2024-03-08T12:50:24;32.70;;;21.90;;
45198;SDS011;30941;46.422;18.772;2024-03-08T12:52:50;35.38;;;24.35;;
45198;SDS011;30941;46.422;18.772;2024-03-08T12:55:17;37.17;;;25.35;;
45198;SDS011;30941;46.422;18.772;2024-03-08T12:57:43;39.95;;;26.38;;
45198;SDS011;30941;46.422;18.772;2024-03-08T13:00:09;40.45;;;25.80;;
45198;SDS011;30941;46.422;18.772;2024-03-08T13:02:38;39.35;;;27.02;;
45198;SDS011;30941;46.422;18.772;2024-03-08T13:05:04;36.75;;;26.35;;
45198;SDS011;30941;46.422;18.772;2024-03-08T13:07:30;38.08;;;27.10;;
45198;SDS011;30941;46.422;18.772;2024-03-08T13:09:56;42.35;;;27.08;;
45198;SDS011;30941;46.422;18.772;2024-03-08T13:12:24;42.80;;;27.30;;
45198;SDS011;30941;46.422;18.772;2024-03-08T13:14:50;40.50;;;27.67;;
45198;SDS011;30941;46.422;18.772;2024-03-08T13:17:15;41.40;;;27.20;;
45198;SDS011;30941;46.422;18.772;2024-03-08T13:19:43;38.00;;;26.55;;
45198;SDS011;30941;46.422;18.772;2024-03-08T13:22:11;39.03;;;26.05;;
45198;SDS011;30941;46.422;18.772;2024-03-08T13:24:42;41.03;;;27.52;;
45198;SDS011;30941;46.422;18.772;2024-03-08T13:27:08;39.92;;;27.33;;
45198;SDS011;30941;46.422;18.772;2024-03-08T13:29:47;40.60;;;25.92;;
45198;SDS011;30941;46.422;18.772;2024-03-08T13:32:16;41.72;;;26.77;;
45198;SDS011;30941;46.422;18.772;2024-03-08T13:34:45;43.05;;;28.23;;
45198;SDS011;30941;46.422;18.772;2024-03-08T13:37:12;38.90;;;25.23;;
45198;SDS011;30941;46.422;18.772;2024-03-08T13:39:41;41.63;;;26.75;;
45198;SDS011;30941;46.422;18.772;2024-03-08T13:42:08;45.17;;;28.70;;
45198;SDS011;30941;46.422;18.772;2024-03-08T13:44:47;51.47;;;30.70;;
45198;SDS011;30941;46.422;18.772;2024-03-08T13:47:14;44.37;;;28.07;;
45198;SDS011;30941;46.422;18.772;2024-03-08T13:49:40;43.55;;;28.23;;
45198;SDS011;30941;46.422;18.772;2024-03-08T13:52:06;40.47;;;26.48;;
45198;SDS011;30941;46.422;18.772;2024-03-08T13:54:33;43.80;;;27.52;;
45198;SDS011;30941;46.422;18.772;2024-03-08T13:57:00;44.90;;;28.35;;
45198;SDS011;30941;46.422;18.772;2024-03-08T13:59:25;44.17;;;28.40;;
45198;SDS011;30941;46.422;18.772;2024-03-08T14:01:54;42.72;;;27.83;;
45198;SDS011;30941;46.422;18.772;2024-03-08T14:04:19;40.97;;;27.00;;
45198;SDS011;30941;46.422;18.772;2024-03-08T14:06:45;49.42;;;30.80;;
45198;SDS011;30941;46.422;18.772;2024-03-08T14:09:13;44.63;;;28.38;;
45198;SDS011;30941;46.422;18.772;2024-03-08T14:11:44;40.83;;;26.17;;
45198;SDS011;30941;46.422;18.772;2024-03-08T14:14:10;45.00;;;27.85;;
45198;SDS011;30941;46.422;18.772;2024-03-08T14:16:37;43.53;;;28.60;;
45198;SDS011;30941;46.422;18.772;2024-03-08T14:19:05;43.55;;;28.30;;
45198;SDS011;30941;46.422;18.772;2024-03-08T14:21:31;43.67;;;27.50;;